createdAt,value
2019-03-30T00:00:21.576Z,8.73
2019-03-30T00:02:49.938Z,8.55
2019-03-30T00:05:18.401Z,8.40
2019-03-30T00:07:47.201Z,7.83
2019-03-30T00:10:15.769Z,8.10
2019-03-30T00:12:44.142Z,8.65
2019-03-30T00:15:12.601Z,9.45
2019-03-30T00:17:41.243Z,8.73
2019-03-30T00:20:09.747Z,8.60
2019-03-30T00:22:38.117Z,7.42
2019-03-30T00:25:07.213Z,8.30
2019-03-30T00:27:35.702Z,8.58
2019-03-30T00:30:05.694Z,8.58
2019-03-30T00:32:34.196Z,8.58
2019-03-30T00:35:22.124Z,8.18
2019-03-30T00:37:50.493Z,8.13
2019-03-30T00:40:18.947Z,8.30
2019-03-30T00:42:47.441Z,8.00
2019-03-30T00:45:15.876Z,8.00
2019-03-30T00:47:44.273Z,7.90
2019-03-30T00:50:12.822Z,7.53
2019-03-30T00:52:41.387Z,7.92
2019-03-30T00:55:09.969Z,7.83
2019-03-30T00:57:38.353Z,8.10
2019-03-30T01:00:07.170Z,8.38
2019-03-30T01:02:35.653Z,8.48
2019-03-30T01:05:05.917Z,7.87
2019-03-30T01:07:34.459Z,8.05
2019-03-30T01:10:03.122Z,8.73
2019-03-30T01:12:31.588Z,8.08
2019-03-30T01:15:00.105Z,7.62
2019-03-30T01:17:28.576Z,7.97
2019-03-30T01:20:02.713Z,8.45
2019-03-30T01:22:27.182Z,8.08
2019-03-30T01:24:55.668Z,8.50
2019-03-30T01:27:24.115Z,8.30
2019-03-30T01:29:52.588Z,8.20
2019-03-30T01:32:21.062Z,8.20
2019-03-30T01:34:49.601Z,8.48
2019-03-30T01:37:18.136Z,8.10
2019-03-30T01:39:46.560Z,8.90
2019-03-30T01:42:15.070Z,8.05
2019-03-30T01:44:43.564Z,8.03
2019-03-30T01:47:12.000Z,8.23
2019-03-30T01:49:40.470Z,8.23
2019-03-30T01:52:08.866Z,8.45
2019-03-30T01:54:37.266Z,8.10
2019-03-30T01:57:05.772Z,8.28
2019-03-30T01:59:34.294Z,8.03
2019-03-30T02:02:02.790Z,8.30
2019-03-30T02:04:31.207Z,8.38
2019-03-30T02:06:59.676Z,7.78
2019-03-30T02:09:28.057Z,7.85
2019-03-30T02:11:56.498Z,8.25
2019-03-30T02:14:24.900Z,8.73
2019-03-30T02:16:53.264Z,9.23
2019-03-30T02:19:21.816Z,8.95
2019-03-30T02:21:50.285Z,8.20
2019-03-30T02:24:18.752Z,8.15
2019-03-30T02:26:47.193Z,7.53
2019-03-30T02:29:15.655Z,7.85
2019-03-30T02:31:44.066Z,9.00
2019-03-30T02:34:12.611Z,9.05
2019-03-30T02:36:41.042Z,7.85
2019-03-30T02:39:09.517Z,8.98
2019-03-30T02:41:38.134Z,7.90
2019-03-30T02:44:06.601Z,8.70
2019-03-30T02:46:35.016Z,8.98
2019-03-30T02:49:03.426Z,9.43
2019-03-30T02:51:31.969Z,9.60
2019-03-30T02:54:00.292Z,9.20
2019-03-30T02:56:28.775Z,10.43
2019-03-30T02:58:57.379Z,9.50
2019-03-30T03:01:25.859Z,10.15
2019-03-30T03:03:54.275Z,10.43
2019-03-30T03:06:22.811Z,10.68
2019-03-30T03:08:51.245Z,11.18
2019-03-30T03:11:19.733Z,10.85
2019-03-30T03:13:48.210Z,11.25
2019-03-30T03:16:16.691Z,9.80
2019-03-30T03:18:45.218Z,11.97
2019-03-30T03:21:13.681Z,11.85
2019-03-30T03:23:42.161Z,11.35
2019-03-30T03:26:10.634Z,11.25
2019-03-30T03:28:39.066Z,10.10
2019-03-30T03:31:07.560Z,10.78
2019-03-30T03:33:36.073Z,10.35
2019-03-30T03:36:04.512Z,10.58
2019-03-30T03:38:32.969Z,10.23
2019-03-30T03:41:14.176Z,9.58
2019-03-30T03:43:42.554Z,11.15
2019-03-30T03:46:11.120Z,11.73
2019-03-30T03:49:00.589Z,10.58
2019-03-30T03:51:29.024Z,9.90
2019-03-30T03:53:57.401Z,11.00
2019-03-30T03:56:26.171Z,11.85
2019-03-30T03:58:54.827Z,11.40
2019-03-30T04:01:23.230Z,10.63
2019-03-30T04:03:53.407Z,10.85
2019-03-30T04:06:22.418Z,10.75
2019-03-30T04:08:52.035Z,10.30
2019-03-30T04:11:20.501Z,9.80
2019-03-30T04:13:49.016Z,11.30
2019-03-30T04:16:17.449Z,10.40
2019-03-30T04:18:48.303Z,11.03
2019-03-30T04:21:16.012Z,10.32
2019-03-30T04:23:44.408Z,10.82
2019-03-30T04:26:12.780Z,11.28
2019-03-30T04:28:41.318Z,11.68
2019-03-30T04:31:09.683Z,11.38
2019-03-30T04:33:38.101Z,10.48
2019-03-30T04:36:06.609Z,12.20
2019-03-30T04:38:35.082Z,10.50
2019-03-30T04:41:03.629Z,10.90
2019-03-30T04:43:32.087Z,11.48
2019-03-30T04:46:00.495Z,11.30
2019-03-30T04:48:29.628Z,11.40
2019-03-30T04:50:58.370Z,11.85
2019-03-30T04:53:26.888Z,10.45
2019-03-30T04:55:55.417Z,11.80
2019-03-30T04:58:23.930Z,11.20
2019-03-30T05:00:52.357Z,11.48
2019-03-30T05:03:20.750Z,11.95
2019-03-30T05:06:09.721Z,10.65
2019-03-30T05:08:38.397Z,11.85
2019-03-30T05:11:06.852Z,10.55
2019-03-30T05:13:35.322Z,12.37
2019-03-30T05:16:03.753Z,11.53
2019-03-30T05:18:32.088Z,11.65
2019-03-30T05:21:00.493Z,10.50
2019-03-30T05:23:28.866Z,11.95
2019-03-30T05:25:57.293Z,11.50
2019-03-30T05:28:25.935Z,12.20
2019-03-30T05:30:54.343Z,11.38
2019-03-30T05:33:22.790Z,11.35
2019-03-30T05:35:51.511Z,11.80
2019-03-30T05:38:20.036Z,10.88
2019-03-30T05:40:48.415Z,11.85
2019-03-30T05:43:16.921Z,11.65
2019-03-30T05:45:45.377Z,11.48
2019-03-30T05:48:13.777Z,11.73
2019-03-30T05:50:42.283Z,11.35
2019-03-30T05:53:10.749Z,12.95
2019-03-30T05:55:58.731Z,11.38
2019-03-30T05:58:27.160Z,12.05
2019-03-30T06:00:55.573Z,12.85
2019-03-30T06:03:24.004Z,12.45
2019-03-30T06:05:52.490Z,11.75
2019-03-30T06:08:20.957Z,12.40
2019-03-30T06:10:49.566Z,12.95
2019-03-30T06:13:18.082Z,12.23
2019-03-30T06:15:46.421Z,11.65
2019-03-30T06:18:14.814Z,12.03
2019-03-30T06:20:43.456Z,12.60
2019-03-30T06:23:11.887Z,10.95
2019-03-30T06:25:40.286Z,11.88
2019-03-30T06:28:08.667Z,12.50
2019-03-30T06:30:38.212Z,12.35
2019-03-30T06:33:06.636Z,11.10
2019-03-30T06:35:35.066Z,11.55
2019-03-30T06:38:03.492Z,11.18
2019-03-30T06:40:31.860Z,11.97
2019-03-30T06:43:00.276Z,12.63
2019-03-30T06:45:28.761Z,12.47
2019-03-30T06:47:57.166Z,12.03
2019-03-30T06:50:25.568Z,12.37
2019-03-30T06:52:58.107Z,11.75
2019-03-30T06:55:24.176Z,13.72
2019-03-30T06:57:52.733Z,11.80
2019-03-30T07:00:24.560Z,13.55
2019-03-30T07:02:52.992Z,15.50
2019-03-30T07:05:21.381Z,13.72
2019-03-30T07:07:49.845Z,14.80
2019-03-30T07:10:18.338Z,14.18
2019-03-30T07:12:47.140Z,14.35
2019-03-30T07:15:15.490Z,15.65
2019-03-30T07:17:46.005Z,17.25
2019-03-30T07:20:17.768Z,16.37
2019-03-30T07:22:46.217Z,15.30
2019-03-30T07:25:14.640Z,16.62
2019-03-30T07:27:43.067Z,16.87
2019-03-30T07:30:14.374Z,17.02
2019-03-30T07:32:42.808Z,17.40
2019-03-30T07:35:11.269Z,14.45
2019-03-30T07:37:39.747Z,18.52
2019-03-30T07:40:08.294Z,17.05
2019-03-30T07:42:36.842Z,16.50
2019-03-30T07:45:07.917Z,17.30
2019-03-30T07:47:36.387Z,19.12
2019-03-30T07:50:06.829Z,17.27
2019-03-30T07:52:35.273Z,17.57
2019-03-30T07:55:04.204Z,18.55
2019-03-30T07:57:32.768Z,15.53
2019-03-30T08:00:01.156Z,16.10
2019-03-30T08:02:29.588Z,16.02
2019-03-30T08:04:59.086Z,17.05
2019-03-30T08:07:27.521Z,17.52
2019-03-30T08:09:55.957Z,17.80
2019-03-30T08:12:24.409Z,18.05
2019-03-30T08:14:52.878Z,14.05
2019-03-30T08:17:21.311Z,18.98
2019-03-30T08:19:51.315Z,18.17
2019-03-30T08:22:19.750Z,17.20
2019-03-30T08:24:48.317Z,16.48
2019-03-30T08:27:16.863Z,18.17
2019-03-30T08:29:45.368Z,16.20
2019-03-30T08:32:13.737Z,16.90
2019-03-30T08:34:42.115Z,17.98
2019-03-30T08:37:10.535Z,18.65
2019-03-30T08:39:39.059Z,16.97
2019-03-30T08:42:07.469Z,17.60
2019-03-30T08:44:35.817Z,15.75
2019-03-30T08:47:04.325Z,17.40
2019-03-30T08:49:32.618Z,17.05
2019-03-30T08:52:01.162Z,16.32
2019-03-30T08:54:29.589Z,18.82
2019-03-30T08:56:57.956Z,19.05
2019-03-30T08:59:26.412Z,18.35
2019-03-30T09:01:54.878Z,17.67
2019-03-30T09:04:23.380Z,17.57
2019-03-30T09:06:51.781Z,19.02
2019-03-30T09:09:20.259Z,17.95
2019-03-30T09:11:48.808Z,18.27
2019-03-30T09:14:17.320Z,16.82
2019-03-30T09:16:45.869Z,18.05
2019-03-30T09:19:14.356Z,17.02
2019-03-30T09:21:42.796Z,17.15
2019-03-30T09:24:11.206Z,14.18
2019-03-30T09:26:39.632Z,16.77
2019-03-30T09:29:08.066Z,16.17
2019-03-30T09:31:36.612Z,17.42
2019-03-30T09:34:05.157Z,15.90
2019-03-30T09:36:33.736Z,15.13
2019-03-30T09:39:02.362Z,16.20
2019-03-30T09:41:30.824Z,16.20
2019-03-30T09:43:59.295Z,16.90
2019-03-30T09:46:27.922Z,17.65
2019-03-30T09:48:56.368Z,17.37
2019-03-30T09:51:24.828Z,15.50
2019-03-30T09:53:53.304Z,14.47
2019-03-30T09:56:21.772Z,17.57
2019-03-30T09:58:50.243Z,16.97
2019-03-30T10:01:18.816Z,16.02
2019-03-30T10:03:47.337Z,16.40
2019-03-30T10:06:15.765Z,16.40
2019-03-30T10:08:44.289Z,16.05
2019-03-30T10:11:12.794Z,17.20
2019-03-30T10:13:41.233Z,16.48
2019-03-30T10:16:09.797Z,16.25
2019-03-30T10:18:38.193Z,17.87
2019-03-30T10:21:06.628Z,15.45
2019-03-30T10:23:35.105Z,15.43
2019-03-30T10:26:03.583Z,16.82
2019-03-30T10:28:32.074Z,17.42
2019-03-30T10:31:00.741Z,15.65
2019-03-30T10:33:29.104Z,16.45
2019-03-30T10:35:57.578Z,19.10
2019-03-30T10:38:26.060Z,17.55
2019-03-30T10:40:54.512Z,15.23
2019-03-30T10:43:22.914Z,18.70
2019-03-30T10:45:51.435Z,18.50
2019-03-30T10:48:19.878Z,16.70
2019-03-30T10:50:48.334Z,19.17
2019-03-30T10:53:16.756Z,20.68
2019-03-30T10:55:45.175Z,20.15
2019-03-30T10:58:13.565Z,17.90
2019-03-30T11:00:42.126Z,16.42
2019-03-30T11:03:10.585Z,17.62
2019-03-30T11:05:39.009Z,18.00
2019-03-30T11:08:07.564Z,18.20
2019-03-30T11:10:35.970Z,17.52
2019-03-30T11:13:04.436Z,15.32
2019-03-30T11:15:34.315Z,15.65
2019-03-30T11:18:02.921Z,18.70
2019-03-30T11:20:31.389Z,18.82
2019-03-30T11:22:59.836Z,18.35
2019-03-30T11:25:28.349Z,18.62
2019-03-30T11:27:56.855Z,18.05
2019-03-30T11:30:25.458Z,18.40
2019-03-30T11:32:53.998Z,18.15
2019-03-30T11:35:22.405Z,16.90
2019-03-30T11:37:50.857Z,18.82
2019-03-30T11:40:19.291Z,19.70
2019-03-30T11:42:47.824Z,19.12
2019-03-30T11:45:16.328Z,19.23
2019-03-30T11:47:44.700Z,20.15
2019-03-30T11:50:13.139Z,18.05
2019-03-30T11:52:41.651Z,15.98
2019-03-30T11:55:20.901Z,16.37
2019-03-30T11:57:40.254Z,17.52
2019-03-30T12:00:08.721Z,19.48
2019-03-30T12:02:37.196Z,19.10
2019-03-30T12:05:25.156Z,17.65
2019-03-30T12:07:53.774Z,17.65
2019-03-30T12:10:22.199Z,17.82
2019-03-30T12:12:50.689Z,16.35
2019-03-30T12:15:19.176Z,16.73
2019-03-30T12:17:47.685Z,17.25
2019-03-30T12:20:16.154Z,16.40
2019-03-30T12:22:44.641Z,17.05
2019-03-30T12:25:13.006Z,17.98
2019-03-30T12:27:41.439Z,18.92
2019-03-30T12:30:09.887Z,17.32
2019-03-30T12:32:38.425Z,17.80
2019-03-30T12:35:07.501Z,15.88
2019-03-30T12:37:36.300Z,16.55
2019-03-30T12:40:06.150Z,16.20
2019-03-30T12:42:34.629Z,16.15
2019-03-30T12:45:03.798Z,17.30
2019-03-30T12:47:32.207Z,18.60
2019-03-30T12:50:00.730Z,19.25
2019-03-30T12:52:29.226Z,18.37
2019-03-30T12:54:57.624Z,17.42
2019-03-30T12:57:26.262Z,18.45
2019-03-30T12:59:54.698Z,18.85
2019-03-30T13:02:23.169Z,19.12
2019-03-30T13:04:51.785Z,18.02
2019-03-30T13:07:20.311Z,16.30
2019-03-30T13:09:48.668Z,18.62
2019-03-30T13:12:17.132Z,16.37
2019-03-30T13:14:45.643Z,16.95
2019-03-30T13:17:14.392Z,18.10
2019-03-30T13:19:42.829Z,17.35
2019-03-30T13:22:11.292Z,17.07
2019-03-30T13:24:39.675Z,16.55
2019-03-30T13:27:08.157Z,17.70
2019-03-30T13:29:37.649Z,17.07
2019-03-30T13:32:06.078Z,17.98
2019-03-30T13:34:34.561Z,17.67
2019-03-30T13:37:17.235Z,16.95
2019-03-30T13:39:45.784Z,16.70
2019-03-30T13:42:14.312Z,17.75
2019-03-30T13:44:42.774Z,14.98
2019-03-30T13:47:11.136Z,16.82
2019-03-30T13:49:39.483Z,16.85
2019-03-30T13:52:08.035Z,18.32
2019-03-30T13:54:38.735Z,16.27
2019-03-30T13:57:07.049Z,16.77
2019-03-30T13:59:36.760Z,16.15
2019-03-30T14:02:05.348Z,16.20
2019-03-30T14:04:33.965Z,15.98
2019-03-30T14:07:02.585Z,23.52
2019-03-30T14:09:31.052Z,16.32
2019-03-30T14:11:59.626Z,17.02
2019-03-30T14:14:28.050Z,18.62
2019-03-30T14:16:56.459Z,16.93
2019-03-30T14:19:24.936Z,17.50
2019-03-30T14:21:53.372Z,17.05
2019-03-30T14:24:21.858Z,16.57
2019-03-30T14:26:51.363Z,16.73
2019-03-30T14:29:19.867Z,16.42
2019-03-30T14:31:48.442Z,18.40
2019-03-30T14:34:16.864Z,16.85
2019-03-30T14:36:45.346Z,17.62
2019-03-30T14:39:13.771Z,15.88
2019-03-30T14:41:42.319Z,16.45
2019-03-30T14:44:10.829Z,17.27
2019-03-30T14:46:39.251Z,16.77
2019-03-30T14:49:07.780Z,17.05
2019-03-30T14:51:36.266Z,16.48
2019-03-30T14:54:04.688Z,15.85
2019-03-30T14:56:45.000Z,15.40
2019-03-30T14:59:10.526Z,15.43
2019-03-30T15:01:34.907Z,15.05
2019-03-30T15:04:03.468Z,15.72
2019-03-30T15:06:31.942Z,15.78
2019-03-30T15:09:01.445Z,16.90
2019-03-30T15:11:30.106Z,14.80
2019-03-30T15:13:58.629Z,17.60
2019-03-30T15:16:27.124Z,15.10
2019-03-30T15:18:55.684Z,16.70
2019-03-30T15:21:24.148Z,14.75
2019-03-30T15:23:52.546Z,15.68
2019-03-30T15:26:22.228Z,14.87
2019-03-30T15:28:50.817Z,15.58
2019-03-30T15:31:19.191Z,15.58
2019-03-30T15:33:47.731Z,16.40
2019-03-30T15:36:16.172Z,16.20
2019-03-30T15:38:44.566Z,14.33
2019-03-30T15:41:13.001Z,15.63
2019-03-30T15:43:41.436Z,15.58
2019-03-30T15:46:09.992Z,15.55
2019-03-30T15:48:38.291Z,16.45
2019-03-30T15:51:06.691Z,16.70
2019-03-30T15:53:35.231Z,15.48
2019-03-30T15:56:03.719Z,16.12
2019-03-30T15:58:32.294Z,17.00
2019-03-30T16:01:01.093Z,16.12
2019-03-30T16:03:29.597Z,15.18
2019-03-30T16:05:58.142Z,16.90
2019-03-30T16:08:26.578Z,18.27
2019-03-30T16:10:59.588Z,14.47
2019-03-30T16:13:28.010Z,16.05
2019-03-30T16:15:56.656Z,19.98
2019-03-30T16:18:25.214Z,16.42
2019-03-30T16:20:53.636Z,15.48
2019-03-30T16:23:22.003Z,15.53
2019-03-30T16:25:50.437Z,15.43
2019-03-30T16:28:18.919Z,15.35
2019-03-30T16:30:47.399Z,14.55
2019-03-30T16:33:23.039Z,12.78
2019-03-30T16:35:51.539Z,14.98
2019-03-30T16:38:19.966Z,13.20
2019-03-30T16:40:48.481Z,14.40
2019-03-30T16:43:16.904Z,13.22
2019-03-30T16:45:45.380Z,13.00
2019-03-30T16:48:14.898Z,14.13
2019-03-30T16:50:43.402Z,14.43
2019-03-30T16:53:11.904Z,14.55
2019-03-30T16:55:40.452Z,13.93
2019-03-30T16:58:08.951Z,11.50
2019-03-30T17:00:37.304Z,14.33
2019-03-30T17:03:07.404Z,13.20
2019-03-30T17:05:36.577Z,12.88
2019-03-30T17:08:05.032Z,13.65
2019-03-30T17:10:33.555Z,14.35
2019-03-30T17:13:03.099Z,12.88
2019-03-30T17:15:31.558Z,13.53
2019-03-30T17:18:00.167Z,13.05
2019-03-30T17:20:29.715Z,13.10
2019-03-30T17:22:59.049Z,13.65
2019-03-30T17:25:27.633Z,13.28
2019-03-30T17:27:58.749Z,13.45
2019-03-30T17:30:26.263Z,13.60
2019-03-30T17:32:54.733Z,16.30
2019-03-30T17:35:23.218Z,15.40
2019-03-30T17:37:51.621Z,13.98
2019-03-30T17:40:20.067Z,13.83
2019-03-30T17:42:48.512Z,13.25
2019-03-30T17:45:16.916Z,13.05
2019-03-30T17:47:45.480Z,13.60
2019-03-30T17:50:13.968Z,12.75
2019-03-30T17:52:42.441Z,13.72
2019-03-30T17:55:11.049Z,13.62
2019-03-30T17:57:39.636Z,13.53
2019-03-30T18:00:09.963Z,14.90
2019-03-30T18:02:38.435Z,13.95
2019-03-30T18:05:06.780Z,14.07
2019-03-30T18:07:35.145Z,13.10
2019-03-30T18:10:05.594Z,15.23
2019-03-30T18:12:34.100Z,13.68
2019-03-30T18:15:02.642Z,14.18
2019-03-30T18:17:31.153Z,14.95
2019-03-30T18:19:59.588Z,14.30
2019-03-30T18:22:28.141Z,15.05
2019-03-30T18:24:58.385Z,15.28
2019-03-30T18:27:26.839Z,14.05
2019-03-30T18:29:55.393Z,15.18
2019-03-30T18:32:23.862Z,15.32
2019-03-30T18:34:52.318Z,16.02
2019-03-30T18:37:20.852Z,15.18
2019-03-30T18:39:49.309Z,15.00
2019-03-30T18:42:17.710Z,15.43
2019-03-30T18:44:46.387Z,14.95
2019-03-30T18:47:14.964Z,15.85
2019-03-30T18:49:43.459Z,13.88
2019-03-30T18:52:12.034Z,14.87
2019-03-30T18:54:40.473Z,14.05
2019-03-30T18:57:08.995Z,14.13
2019-03-30T18:59:37.685Z,14.63
2019-03-30T19:02:06.178Z,14.93
2019-03-30T19:04:34.699Z,13.53
2019-03-30T19:07:03.285Z,15.80
2019-03-30T19:09:31.800Z,14.38
2019-03-30T19:12:00.298Z,14.73
2019-03-30T19:14:28.838Z,13.90
2019-03-30T19:16:57.266Z,14.65
2019-03-30T19:19:26.713Z,14.18
2019-03-30T19:21:55.203Z,14.68
2019-03-30T19:24:23.787Z,16.23
2019-03-30T19:26:52.206Z,15.45
2019-03-30T19:29:21.000Z,13.95
2019-03-30T19:31:49.571Z,16.02
2019-03-30T19:34:18.042Z,16.80
2019-03-30T19:36:46.847Z,17.52
2019-03-30T19:39:15.289Z,16.97
2019-03-30T19:41:43.766Z,18.00
2019-03-30T19:44:13.090Z,18.20
2019-03-30T19:46:41.854Z,17.67
2019-03-30T19:49:10.795Z,17.62
2019-03-30T19:51:40.263Z,18.25
2019-03-30T19:54:08.857Z,18.45
2019-03-30T19:56:39.794Z,18.37
2019-03-30T19:59:10.869Z,17.35
2019-03-30T20:01:39.754Z,18.45
2019-03-30T20:04:09.355Z,17.98
2019-03-30T20:06:39.791Z,17.98
2019-03-30T20:09:09.157Z,17.50
2019-03-30T20:11:39.948Z,18.17
2019-03-30T20:14:09.249Z,17.12
2019-03-30T20:16:42.018Z,19.00
2019-03-30T20:19:12.443Z,18.77
2019-03-30T20:21:44.150Z,19.00
2019-03-30T20:24:13.578Z,17.87
2019-03-30T20:26:42.705Z,17.92
2019-03-30T20:29:24.809Z,18.95
2019-03-30T20:31:43.259Z,18.85
2019-03-30T20:34:12.398Z,17.48
2019-03-30T20:36:41.381Z,19.15
2019-03-30T20:39:10.471Z,19.00
2019-03-30T20:41:39.789Z,18.35
2019-03-30T20:44:09.088Z,18.57
2019-03-30T20:46:38.460Z,19.00
2019-03-30T20:49:08.183Z,17.40
2019-03-30T20:51:37.710Z,17.80
2019-03-30T20:54:07.022Z,19.00
2019-03-30T20:56:35.975Z,18.12
2019-03-30T20:59:05.997Z,17.65
2019-03-30T21:01:38.396Z,19.32
2019-03-30T21:04:06.835Z,18.02
2019-03-30T21:06:36.279Z,17.73
2019-03-30T21:09:07.002Z,16.12
2019-03-30T21:11:36.415Z,17.40
2019-03-30T21:14:05.108Z,17.77
2019-03-30T21:16:34.266Z,18.17
2019-03-30T21:19:03.449Z,18.98
2019-03-30T21:21:32.693Z,16.55
2019-03-30T21:24:01.866Z,17.40
2019-03-30T21:26:30.776Z,15.65
2019-03-30T21:28:59.374Z,17.40
2019-03-30T21:31:27.878Z,16.73
2019-03-30T21:33:58.012Z,17.00
2019-03-30T21:36:26.450Z,16.90
2019-03-30T21:38:54.967Z,16.93
2019-03-30T21:41:23.447Z,17.15
2019-03-30T21:43:51.893Z,17.42
2019-03-30T21:46:20.367Z,15.40
2019-03-30T21:48:48.877Z,16.15
2019-03-30T21:51:17.271Z,16.70
2019-03-30T21:53:45.968Z,16.37
2019-03-30T21:56:14.405Z,16.60
2019-03-30T21:58:42.875Z,17.48
2019-03-30T22:01:11.421Z,16.32
2019-03-30T22:03:39.893Z,17.10
2019-03-30T22:06:08.404Z,16.77
2019-03-30T22:08:37.029Z,16.10
2019-03-30T22:11:05.435Z,16.67
2019-03-30T22:13:33.926Z,17.20
2019-03-30T22:16:02.490Z,18.70
2019-03-30T22:18:31.001Z,16.23
2019-03-30T22:20:59.420Z,16.85
2019-03-30T22:23:27.853Z,16.35
2019-03-30T22:25:56.300Z,17.75
2019-03-30T22:28:24.724Z,16.20
2019-03-30T22:30:53.092Z,17.62
2019-03-30T22:33:21.522Z,16.95
2019-03-30T22:35:49.921Z,15.23
2019-03-30T22:38:18.428Z,17.82
2019-03-30T22:40:46.874Z,16.15
2019-03-30T22:43:15.367Z,15.45
2019-03-30T22:45:43.810Z,16.02
2019-03-30T22:48:12.552Z,16.85
2019-03-30T22:50:40.995Z,17.12
2019-03-30T22:53:09.519Z,15.50
2019-03-30T22:55:37.981Z,15.53
2019-03-30T22:58:06.347Z,15.75
2019-03-30T23:00:38.864Z,14.90
2019-03-30T23:03:06.867Z,16.07
2019-03-30T23:05:35.314Z,16.37
2019-03-30T23:08:03.762Z,14.05
2019-03-30T23:10:32.336Z,16.07
2019-03-30T23:13:00.842Z,15.13
2019-03-30T23:15:29.228Z,15.78
2019-03-30T23:17:57.598Z,15.35
2019-03-30T23:20:26.030Z,15.72
2019-03-30T23:22:54.415Z,14.75
2019-03-30T23:25:22.824Z,14.60
2019-03-30T23:27:51.347Z,15.68
2019-03-30T23:30:19.702Z,16.12
2019-03-30T23:32:48.035Z,15.95
2019-03-30T23:35:16.565Z,15.28
2019-03-30T23:37:44.987Z,16.30
2019-03-30T23:40:13.392Z,15.65
2019-03-30T23:42:41.856Z,15.48
2019-03-30T23:45:10.496Z,16.05
2019-03-30T23:47:39.060Z,15.48
2019-03-30T23:50:07.513Z,16.80
2019-03-30T23:52:35.870Z,16.17
2019-03-30T23:55:06.516Z,16.50
2019-03-30T23:57:35.057Z,16.93
